Terminal Aerodrome Forecast
Issued by NWS

Home | Current Version | Previous Version | Text Only | Print | Product List | Glossary On
Versions: 1 2 3 4 5 6 7 8 9 10 11 12 13 14 15 16 17 18 19 20 21 22 23 24 25 26 27 28 29 30 31 32 33 34 35 36 37
000
FTUS46 KEKA 180116 AAD
TAFACV
TAF AMD
KACV 180116Z 1801/1824 29004KT 5SM -SHRA BR FEW005 BKN010 OVC020
      TEMPO 1801/1805 1SM -SHRA BR SCT005 OVC010
     FM181000 31008G18KT 6SM -SHRA BR SCT025 OVC050
     FM181800 32012G22KT 6SM -SHRA BR SCT025 OVC050=

USA.gov is the U.S. government's official web portal to all federal, state and local government web resources and services.